sensor_id;sensor_type;location;lat;lon;timestamp;pressure;altitude;pressure_sealevel;temperature;humidity
60852;BME280;48553;50.766;2.900;2023-06-22T00:00:07;101170.09;;;22.76;64.38
60852;BME280;48553;50.766;2.900;2023-06-22T00:03:12;101178.50;;;22.72;64.50
60852;BME280;48553;50.766;2.900;2023-06-22T00:06:12;101168.94;;;22.69;64.32
60852;BME280;48553;50.766;2.900;2023-06-22T00:09:13;101174.94;;;22.68;64.47
60852;BME280;48553;50.766;2.900;2023-06-22T00:12:13;101167.78;;;22.63;64.33
60852;BME280;48553;50.766;2.900;2023-06-22T00:15:14;101165.00;;;22.60;64.72
60852;BME280;48553;50.766;2.900;2023-06-22T00:18:14;101155.06;;;22.55;64.56
60852;BME280;48553;50.766;2.900;2023-06-22T00:21:15;101157.84;;;22.55;64.65
60852;BME280;48553;50.766;2.900;2023-06-22T00:24:16;101156.25;;;22.54;64.73
60852;BME280;48553;50.766;2.900;2023-06-22T00:27:16;101155.06;;;22.51;64.59
60852;BME280;48553;50.766;2.900;2023-06-22T00:30:18;101149.94;;;22.46;64.86
60852;BME280;48553;50.766;2.900;2023-06-22T00:33:19;101141.16;;;22.44;64.79
60852;BME280;48553;50.766;2.900;2023-06-22T00:36:19;101149.53;;;22.44;64.87
60852;BME280;48553;50.766;2.900;2023-06-22T00:39:19;101144.38;;;22.39;64.72
60852;BME280;48553;50.766;2.900;2023-06-22T00:42:20;101139.59;;;22.40;64.41
60852;BME280;48553;50.766;2.900;2023-06-22T00:45:20;101139.59;;;22.36;64.50
60852;BME280;48553;50.766;2.900;2023-06-22T00:48:23;101148.41;;;22.35;64.54
60852;BME280;48553;50.766;2.900;2023-06-22T00:51:24;101140.81;;;22.31;64.69
60852;BME280;48553;50.766;2.900;2023-06-22T00:54:24;101140.81;;;22.31;64.32
60852;BME280;48553;50.766;2.900;2023-06-22T00:57:26;101146.84;;;22.26;64.44
60852;BME280;48553;50.766;2.900;2023-06-22T01:00:28;101143.25;;;22.22;64.43
60852;BME280;48553;50.766;2.900;2023-06-22T01:03:29;101134.09;;;22.22;64.51
60852;BME280;48553;50.766;2.900;2023-06-22T01:06:35;101134.50;;;22.17;64.50
60852;BME280;48553;50.766;2.900;2023-06-22T01:09:49;101137.69;;;22.15;64.39
60852;BME280;48553;50.766;2.900;2023-06-22T01:12:55;101133.31;;;22.10;64.67
60852;BME280;48553;50.766;2.900;2023-06-22T01:16:16;101142.47;;;22.11;64.50
60852;BME280;48553;50.766;2.900;2023-06-22T01:19:37;101140.91;;;22.06;64.68
60852;BME280;48553;50.766;2.900;2023-06-22T01:29:24;101134.97;;;21.97;64.70
60852;BME280;48553;50.766;2.900;2023-06-22T01:32:32;101138.56;;;21.94;64.61
60852;BME280;48553;50.766;2.900;2023-06-22T01:35:33;101145.38;;;21.89;64.79
60852;BME280;48553;50.766;2.900;2023-06-22T01:38:34;101150.56;;;21.87;64.79
60852;BME280;48553;50.766;2.900;2023-06-22T01:41:37;101145.38;;;21.86;64.77
60852;BME280;48553;50.766;2.900;2023-06-22T01:44:38;101146.19;;;21.79;64.90
60852;BME280;48553;50.766;2.900;2023-06-22T01:47:39;101143.00;;;21.77;64.84
60852;BME280;48553;50.766;2.900;2023-06-22T01:50:40;101151.81;;;21.76;64.79
60852;BME280;48553;50.766;2.900;2023-06-22T01:53:42;101151.78;;;21.72;64.98
60852;BME280;48553;50.766;2.900;2023-06-22T01:56:42;101162.16;;;21.72;64.91
60852;BME280;48553;50.766;2.900;2023-06-22T02:03:19;101133.47;;;21.64;64.83
60852;BME280;48553;50.766;2.900;2023-06-22T02:06:36;101137.91;;;21.58;64.87
60852;BME280;48553;50.766;2.900;2023-06-22T02:09:38;101136.28;;;21.57;64.77
60852;BME280;48553;50.766;2.900;2023-06-22T02:12:43;101136.72;;;21.55;64.84
60852;BME280;48553;50.766;2.900;2023-06-22T02:15:44;101129.91;;;21.53;65.38
60852;BME280;48553;50.766;2.900;2023-06-22T02:18:47;101121.56;;;21.49;65.19
60852;BME280;48553;50.766;2.900;2023-06-22T02:21:47;101113.19;;;21.45;65.40
60852;BME280;48553;50.766;2.900;2023-06-22T02:24:48;101108.84;;;21.44;65.29
60852;BME280;48553;50.766;2.900;2023-06-22T02:27:48;101110.41;;;21.45;65.58
60852;BME280;48553;50.766;2.900;2023-06-22T02:30:49;101108.44;;;21.42;65.54
60852;BME280;48553;50.766;2.900;2023-06-22T02:33:49;101105.63;;;21.39;65.18
60852;BME280;48553;50.766;2.900;2023-06-22T02:36:50;101111.22;;;21.35;65.59
60852;BME280;48553;50.766;2.900;2023-06-22T02:39:51;101108.41;;;21.32;65.63
60852;BME280;48553;50.766;2.900;2023-06-22T02:42:51;101111.22;;;21.32;65.61
60852;BME280;48553;50.766;2.900;2023-06-22T02:45:52;101112.03;;;21.28;65.95
60852;BME280;48553;50.766;2.900;2023-06-22T02:48:52;101105.66;;;21.24;65.92
60852;BME280;48553;50.766;2.900;2023-06-22T02:51:53;101100.88;;;21.21;65.94
60852;BME280;48553;50.766;2.900;2023-06-22T02:54:54;101108.44;;;21.21;65.75
60852;BME280;48553;50.766;2.900;2023-06-22T02:57:54;101103.66;;;21.14;66.18
60852;BME280;48553;50.766;2.900;2023-06-22T03:00:55;101094.94;;;21.12;66.12
60852;BME280;48553;50.766;2.900;2023-06-22T03:03:56;101097.31;;;21.10;66.17
60852;BME280;48553;50.766;2.900;2023-06-22T03:06:56;101098.09;;;21.07;66.37
60852;BME280;48553;50.766;2.900;2023-06-22T03:10:01;101094.91;;;21.05;66.43
60852;BME280;48553;50.766;2.900;2023-06-22T03:13:01;101093.31;;;21.04;66.40
60852;BME280;48553;50.766;2.900;2023-06-22T03:16:02;101100.91;;;21.03;66.57
60852;BME280;48553;50.766;2.900;2023-06-22T03:19:02;101101.28;;;21.02;66.67
60852;BME280;48553;50.766;2.900;2023-06-22T03:22:03;101088.56;;;21.01;66.63
60852;BME280;48553;50.766;2.900;2023-06-22T03:25:04;101095.72;;;20.98;66.60
60852;BME280;48553;50.766;2.900;2023-06-22T03:28:05;101087.38;;;20.98;66.87
60852;BME280;48553;50.766;2.900;2023-06-22T03:31:05;101081.38;;;20.93;66.64
60852;BME280;48553;50.766;2.900;2023-06-22T03:34:07;101085.75;;;20.94;66.71
60852;BME280;48553;50.766;2.900;2023-06-22T03:37:07;101089.75;;;20.93;66.64
60852;BME280;48553;50.766;2.900;2023-06-22T03:40:08;101089.34;;;20.91;66.90
60852;BME280;48553;50.766;2.900;2023-06-22T03:43:09;101087.38;;;20.88;67.09
60852;BME280;48553;50.766;2.900;2023-06-22T03:46:09;101088.94;;;20.89;66.80
60852;BME280;48553;50.766;2.900;2023-06-22T03:49:10;101086.97;;;20.85;66.95
60852;BME280;48553;50.766;2.900;2023-06-22T03:52:10;101099.28;;;20.84;66.99
60852;BME280;48553;50.766;2.900;2023-06-22T03:55:11;101092.13;;;20.83;66.86
60852;BME280;48553;50.766;2.900;2023-06-22T03:58:11;101099.31;;;20.81;67.12
60852;BME280;48553;50.766;2.900;2023-06-22T04:01:12;101094.13;;;20.79;67.05
60852;BME280;48553;50.766;2.900;2023-06-22T04:04:13;101107.25;;;20.75;67.11
60852;BME280;48553;50.766;2.900;2023-06-22T04:07:13;101104.06;;;20.73;67.16
60852;BME280;48553;50.766;2.900;2023-06-22T04:10:14;101099.69;;;20.72;67.37
60852;BME280;48553;50.766;2.900;2023-06-22T04:13:14;101090.94;;;20.70;67.15
60852;BME280;48553;50.766;2.900;2023-06-22T04:16:15;101084.97;;;20.68;67.34
60852;BME280;48553;50.766;2.900;2023-06-22T04:19:15;101100.09;;;20.67;67.39
60852;BME280;48553;50.766;2.900;2023-06-22T04:22:17;101101.28;;;20.66;67.19
60852;BME280;48553;50.766;2.900;2023-06-22T04:25:18;101094.91;;;20.65;67.27
60852;BME280;48553;50.766;2.900;2023-06-22T04:28:18;101093.34;;;20.64;67.34
60852;BME280;48553;50.766;2.900;2023-06-22T04:31:19;101094.50;;;20.63;67.08
60852;BME280;48553;50.766;2.900;2023-06-22T04:34:19;101109.66;;;20.62;67.06
60852;BME280;48553;50.766;2.900;2023-06-22T04:37:20;101109.66;;;20.62;67.21
60852;BME280;48553;50.766;2.900;2023-06-22T04:40:23;101095.72;;;20.62;67.15
60852;BME280;48553;50.766;2.900;2023-06-22T04:43:24;101103.25;;;20.62;67.26
60852;BME280;48553;50.766;2.900;2023-06-22T04:46:24;101093.72;;;20.63;67.35
60852;BME280;48553;50.766;2.900;2023-06-22T04:49:25;101097.31;;;20.60;67.31
60852;BME280;48553;50.766;2.900;2023-06-22T04:52:33;101096.91;;;20.61;67.46
60852;BME280;48553;50.766;2.900;2023-06-22T04:55:33;101091.75;;;20.60;67.35
60852;BME280;48553;50.766;2.900;2023-06-22T04:58:34;101090.13;;;20.59;67.08
60852;BME280;48553;50.766;2.900;2023-06-22T05:01:34;101101.69;;;20.61;67.31
60852;BME280;48553;50.766;2.900;2023-06-22T05:04:35;101094.53;;;20.60;67.40
60852;BME280;48553;50.766;2.900;2023-06-22T05:07:40;101097.31;;;20.60;66.94
60852;BME280;48553;50.766;2.900;2023-06-22T05:10:43;101097.31;;;20.60;67.06
60852;BME280;48553;50.766;2.900;2023-06-22T05:13:43;101090.53;;;20.61;67.24
60852;BME280;48553;50.766;2.900;2023-06-22T05:16:44;101090.16;;;20.62;67.25
60852;BME280;48553;50.766;2.900;2023-06-22T05:19:45;101091.34;;;20.65;67.42
60852;BME280;48553;50.766;2.900;2023-06-22T05:22:48;101093.31;;;20.68;67.23
60852;BME280;48553;50.766;2.900;2023-06-22T05:25:49;101089.75;;;20.71;67.51
60852;BME280;48553;50.766;2.900;2023-06-22T05:28:49;101092.91;;;20.73;67.48
60852;BME280;48553;50.766;2.900;2023-06-22T05:31:50;101082.19;;;20.75;67.37
60852;BME280;48553;50.766;2.900;2023-06-22T05:34:50;101073.03;;;20.78;67.39
60852;BME280;48553;50.766;2.900;2023-06-22T05:37:51;101080.59;;;20.81;67.38
60852;BME280;48553;50.766;2.900;2023-06-22T05:40:52;101077.03;;;20.81;67.33
60852;BME280;48553;50.766;2.900;2023-06-22T05:43:52;101069.44;;;20.81;67.20
60852;BME280;48553;50.766;2.900;2023-06-22T05:46:53;101063.88;;;20.81;67.18
60852;BME280;48553;50.766;2.900;2023-06-22T05:49:53;101065.50;;;20.82;67.10
60852;BME280;48553;50.766;2.900;2023-06-22T05:52:54;101066.69;;;20.85;66.87
60852;BME280;48553;50.766;2.900;2023-06-22T05:55:54;101065.09;;;20.88;67.10
60852;BME280;48553;50.766;2.900;2023-06-22T05:58:55;101064.28;;;20.87;66.96
60852;BME280;48553;50.766;2.900;2023-06-22T06:01:56;101069.03;;;20.86;66.94
60852;BME280;48553;50.766;2.900;2023-06-22T06:04:56;101067.06;;;20.87;67.02
60852;BME280;48553;50.766;2.900;2023-06-22T06:07:58;101063.09;;;20.88;66.77
60852;BME280;48553;50.766;2.900;2023-06-22T06:10:58;101045.56;;;20.91;66.36
60852;BME280;48553;50.766;2.900;2023-06-22T06:13:59;101049.16;;;20.92;66.57
60852;BME280;48553;50.766;2.900;2023-06-22T06:16:59;101043.97;;;20.94;66.83
60852;BME280;48553;50.766;2.900;2023-06-22T06:20:01;101038.00;;;20.95;66.62
60852;BME280;48553;50.766;2.900;2023-06-22T06:23:01;101037.59;;;20.97;66.72
60852;BME280;48553;50.766;2.900;2023-06-22T06:26:02;101035.63;;;21.01;66.80
60852;BME280;48553;50.766;2.900;2023-06-22T06:29:02;101039.97;;;21.02;66.86
60852;BME280;48553;50.766;2.900;2023-06-22T06:32:03;101037.59;;;21.04;66.70
60852;BME280;48553;50.766;2.900;2023-06-22T06:35:06;101040.38;;;21.08;66.46
60852;BME280;48553;50.766;2.900;2023-06-22T06:38:06;101033.19;;;21.06;66.69
60852;BME280;48553;50.766;2.900;2023-06-22T06:41:07;101041.97;;;21.12;66.55
60852;BME280;48553;50.766;2.900;2023-06-22T06:44:07;101037.97;;;21.13;66.44
60852;BME280;48553;50.766;2.900;2023-06-22T06:47:07;101042.72;;;21.16;66.63
60852;BME280;48553;50.766;2.900;2023-06-22T06:50:08;101037.94;;;21.20;66.47
60852;BME280;48553;50.766;2.900;2023-06-22T06:53:10;101045.53;;;21.23;66.56
60852;BME280;48553;50.766;2.900;2023-06-22T06:56:10;101031.94;;;21.25;66.65
60852;BME280;48553;50.766;2.900;2023-06-22T06:59:11;101030.38;;;21.28;66.43
60852;BME280;48553;50.766;2.900;2023-06-22T07:02:11;101021.19;;;21.31;66.45
60852;BME280;48553;50.766;2.900;2023-06-22T07:05:13;101024.38;;;21.33;66.65
60852;BME280;48553;50.766;2.900;2023-06-22T07:08:13;101016.81;;;21.34;66.96
60852;BME280;48553;50.766;2.900;2023-06-22T07:11:14;101021.97;;;21.35;66.93
60852;BME280;48553;50.766;2.900;2023-06-22T07:14:14;101015.59;;;21.38;66.99
60852;BME280;48553;50.766;2.900;2023-06-22T07:17:14;101004.88;;;21.40;66.51
60852;BME280;48553;50.766;2.900;2023-06-22T07:20:15;101008.84;;;21.43;66.72
60852;BME280;48553;50.766;2.900;2023-06-22T07:23:16;101003.66;;;21.45;66.78
60852;BME280;48553;50.766;2.900;2023-06-22T07:26:17;101002.81;;;21.48;66.74
60852;BME280;48553;50.766;2.900;2023-06-22T07:29:17;101008.41;;;21.48;66.75
60852;BME280;48553;50.766;2.900;2023-06-22T07:32:18;101008.81;;;21.50;66.62
60852;BME280;48553;50.766;2.900;2023-06-22T07:35:18;101012.78;;;21.53;66.92
60852;BME280;48553;50.766;2.900;2023-06-22T07:38:19;101013.16;;;21.55;66.87
60852;BME280;48553;50.766;2.900;2023-06-22T07:41:19;101010.78;;;21.53;67.02
60852;BME280;48553;50.766;2.900;2023-06-22T07:44:20;101010.75;;;21.57;66.66
60852;BME280;48553;50.766;2.900;2023-06-22T07:47:20;101007.19;;;21.56;66.86
60852;BME280;48553;50.766;2.900;2023-06-22T07:50:25;101008.75;;;21.57;66.58
60852;BME280;48553;50.766;2.900;2023-06-22T07:53:25;101013.56;;;21.60;66.52
60852;BME280;48553;50.766;2.900;2023-06-22T07:56:26;101007.97;;;21.60;66.81
60852;BME280;48553;50.766;2.900;2023-06-22T07:59:26;101003.97;;;21.61;66.26
60852;BME280;48553;50.766;2.900;2023-06-22T08:02:27;100996.38;;;21.62;66.45
60852;BME280;48553;50.766;2.900;2023-06-22T08:05:27;101003.97;;;21.61;66.46
60852;BME280;48553;50.766;2.900;2023-06-22T08:08:28;100989.22;;;21.61;66.60
60852;BME280;48553;50.766;2.900;2023-06-22T08:11:28;100990.41;;;21.63;66.03
60852;BME280;48553;50.766;2.900;2023-06-22T08:14:29;100997.59;;;21.64;66.26
60852;BME280;48553;50.766;2.900;2023-06-22T08:17:30;100994.81;;;21.64;66.12
60852;BME280;48553;50.766;2.900;2023-06-22T08:20:31;100998.00;;;21.66;66.29
60852;BME280;48553;50.766;2.900;2023-06-22T08:23:32;100993.19;;;21.67;66.58
60852;BME280;48553;50.766;2.900;2023-06-22T08:26:33;101001.97;;;21.69;66.26
60852;BME280;48553;50.766;2.900;2023-06-22T08:29:36;100997.16;;;21.69;66.52
60852;BME280;48553;50.766;2.900;2023-06-22T08:32:37;100999.16;;;21.69;66.75
60852;BME280;48553;50.766;2.900;2023-06-22T08:35:37;101007.94;;;21.71;66.74
60852;BME280;48553;50.766;2.900;2023-06-22T08:38:38;101002.34;;;21.71;66.80
60852;BME280;48553;50.766;2.900;2023-06-22T08:41:39;101000.75;;;21.74;66.80
60852;BME280;48553;50.766;2.900;2023-06-22T08:44:39;101002.34;;;21.71;67.17
60852;BME280;48553;50.766;2.900;2023-06-22T08:47:40;101005.13;;;21.71;67.11
60852;BME280;48553;50.766;2.900;2023-06-22T08:50:41;101006.31;;;21.74;66.96
60852;BME280;48553;50.766;2.900;2023-06-22T08:53:42;101010.28;;;21.73;67.16
60852;BME280;48553;50.766;2.900;2023-06-22T08:56:43;101008.69;;;21.75;67.09
60852;BME280;48553;50.766;2.900;2023-06-22T08:59:44;101022.25;;;21.77;67.71
60852;BME280;48553;50.766;2.900;2023-06-22T09:02:45;101012.28;;;21.76;67.40
60852;BME280;48553;50.766;2.900;2023-06-22T09:05:46;101014.66;;;21.77;67.66
60852;BME280;48553;50.766;2.900;2023-06-22T09:08:47;101009.88;;;21.78;67.75
60852;BME280;48553;50.766;2.900;2023-06-22T09:11:47;101023.03;;;21.77;67.58
60852;BME280;48553;50.766;2.900;2023-06-22T09:14:48;101012.66;;;21.78;68.05
60852;BME280;48553;50.766;2.900;2023-06-22T09:17:48;101018.22;;;21.78;68.09
60852;BME280;48553;50.766;2.900;2023-06-22T09:20:50;101025.81;;;21.81;68.18
60852;BME280;48553;50.766;2.900;2023-06-22T09:23:50;101026.59;;;21.85;67.75
60852;BME280;48553;50.766;2.900;2023-06-22T09:26:51;101027.78;;;21.84;68.18
60852;BME280;48553;50.766;2.900;2023-06-22T09:29:51;101023.81;;;21.85;68.38
60852;BME280;48553;50.766;2.900;2023-06-22T09:32:52;101023.81;;;21.85;68.22
60852;BME280;48553;50.766;2.900;2023-06-22T09:35:52;101020.19;;;21.84;68.43
60852;BME280;48553;50.766;2.900;2023-06-22T09:38:53;101029.78;;;21.87;68.22
60852;BME280;48553;50.766;2.900;2023-06-22T09:41:58;101036.16;;;21.87;68.43
60852;BME280;48553;50.766;2.900;2023-06-22T09:44:59;101033.34;;;21.87;68.31
60852;BME280;48553;50.766;2.900;2023-06-22T09:47:59;101035.72;;;21.89;68.11
60852;BME280;48553;50.766;2.900;2023-06-22T09:51:00;101037.31;;;21.90;68.44
60852;BME280;48553;50.766;2.900;2023-06-22T09:54:00;101036.53;;;21.89;68.29
60852;BME280;48553;50.766;2.900;2023-06-22T09:57:01;101035.31;;;21.90;68.51
60852;BME280;48553;50.766;2.900;2023-06-22T10:00:01;101034.91;;;21.92;68.84
60852;BME280;48553;50.766;2.900;2023-06-22T10:03:02;101032.53;;;21.90;68.54
60852;BME280;48553;50.766;2.900;2023-06-22T10:06:03;101030.91;;;21.93;68.23
60852;BME280;48553;50.766;2.900;2023-06-22T10:09:03;101029.72;;;21.94;68.48
60852;BME280;48553;50.766;2.900;2023-06-22T10:12:04;101028.91;;;21.94;68.45
60852;BME280;48553;50.766;2.900;2023-06-22T10:15:05;101033.72;;;21.93;68.37
60852;BME280;48553;50.766;2.900;2023-06-22T10:18:06;101023.34;;;21.94;68.52
60852;BME280;48553;50.766;2.900;2023-06-22T10:21:06;101028.50;;;21.95;68.47
60852;BME280;48553;50.766;2.900;2023-06-22T10:24:06;101013.78;;;21.95;68.32
60852;BME280;48553;50.766;2.900;2023-06-22T10:27:07;101013.78;;;21.95;68.68
60852;BME280;48553;50.766;2.900;2023-06-22T10:30:08;101007.41;;;21.94;68.83
60852;BME280;48553;50.766;2.900;2023-06-22T10:33:10;101002.59;;;21.95;68.53
60852;BME280;48553;50.766;2.900;2023-06-22T10:36:11;101004.59;;;21.94;68.69
60852;BME280;48553;50.766;2.900;2023-06-22T10:39:11;101001.81;;;21.94;68.92
60852;BME280;48553;50.766;2.900;2023-06-22T10:42:12;100991.03;;;21.96;68.88
60852;BME280;48553;50.766;2.900;2023-06-22T10:45:12;101001.00;;;21.94;68.78
60852;BME280;48553;50.766;2.900;2023-06-22T10:48:13;100992.63;;;21.94;68.77
60852;BME280;48553;50.766;2.900;2023-06-22T10:51:14;100993.03;;;21.96;69.15
60852;BME280;48553;50.766;2.900;2023-06-22T10:54:14;100997.03;;;21.95;69.16
60852;BME280;48553;50.766;2.900;2023-06-22T10:57:17;100986.66;;;21.95;69.12
60852;BME280;48553;50.766;2.900;2023-06-22T11:00:17;100990.22;;;21.96;69.14
60852;BME280;48553;50.766;2.900;2023-06-22T11:03:18;100993.84;;;21.96;69.28
60852;BME280;48553;50.766;2.900;2023-06-22T11:06:18;100991.84;;;21.97;68.83
60852;BME280;48553;50.766;2.900;2023-06-22T11:09:19;100988.25;;;21.96;69.37
60852;BME280;48553;50.766;2.900;2023-06-22T11:12:22;100995.41;;;21.97;68.91
60852;BME280;48553;50.766;2.900;2023-06-22T11:15:24;100991.41;;;21.98;69.14
60852;BME280;48553;50.766;2.900;2023-06-22T11:18:24;100991.84;;;21.97;69.66
60852;BME280;48553;50.766;2.900;2023-06-22T11:21:25;100985.81;;;21.98;69.65
60852;BME280;48553;50.766;2.900;2023-06-22T11:24:25;100985.81;;;21.98;70.62
60852;BME280;48553;50.766;2.900;2023-06-22T11:27:26;100987.44;;;21.99;70.30
60852;BME280;48553;50.766;2.900;2023-06-22T11:30:26;100987.44;;;21.99;70.65
60852;BME280;48553;50.766;2.900;2023-06-22T11:33:27;100985.81;;;22.02;70.91
60852;BME280;48553;50.766;2.900;2023-06-22T11:36:29;100979.44;;;22.01;70.49
60852;BME280;48553;50.766;2.900;2023-06-22T11:39:29;100978.22;;;22.02;71.57
60852;BME280;48553;50.766;2.900;2023-06-22T11:42:30;100965.09;;;22.03;71.36
60852;BME280;48553;50.766;2.900;2023-06-22T11:45:30;100975.44;;;22.02;71.92
60852;BME280;48553;50.766;2.900;2023-06-22T11:48:30;100982.19;;;22.05;71.87
60852;BME280;48553;50.766;2.900;2023-06-22T11:51:31;100984.59;;;22.06;72.24
60852;BME280;48553;50.766;2.900;2023-06-22T11:54:32;100982.56;;;22.07;71.86
60852;BME280;48553;50.766;2.900;2023-06-22T11:57:36;100985.75;;;22.09;72.46
60852;BME280;48553;50.766;2.900;2023-06-22T12:00:37;100983.41;;;22.07;72.55
60852;BME280;48553;50.766;2.900;2023-06-22T12:03:37;100988.16;;;22.07;72.42
60852;BME280;48553;50.766;2.900;2023-06-22T12:06:38;100987.38;;;22.10;73.34
60852;BME280;48553;50.766;2.900;2023-06-22T12:09:41;100989.34;;;22.09;73.11
60852;BME280;48553;50.766;2.900;2023-06-22T12:12:42;100987.75;;;22.08;73.46
60852;BME280;48553;50.766;2.900;2023-06-22T12:15:42;100985.34;;;22.10;72.83
60852;BME280;48553;50.766;2.900;2023-06-22T12:18:43;100986.97;;;22.08;73.70
60852;BME280;48553;50.766;2.900;2023-06-22T12:21:43;100984.19;;;22.08;73.35
60852;BME280;48553;50.766;2.900;2023-06-22T12:24:45;100981.78;;;22.06;74.04
60852;BME280;48553;50.766;2.900;2023-06-22T12:27:46;100979.38;;;22.08;73.77
60852;BME280;48553;50.766;2.900;2023-06-22T12:30:46;100986.53;;;22.09;73.45
60852;BME280;48553;50.766;2.900;2023-06-22T12:33:47;100990.53;;;22.12;73.56
60852;BME280;48553;50.766;2.900;2023-06-22T12:36:47;100987.31;;;22.14;73.58
60852;BME280;48553;50.766;2.900;2023-06-22T12:39:49;100993.28;;;22.16;73.33
60852;BME280;48553;50.766;2.900;2023-06-22T12:42:49;100986.53;;;22.17;73.24
60852;BME280;48553;50.766;2.900;2023-06-22T12:45:49;100985.31;;;22.18;73.34
60852;BME280;48553;50.766;2.900;2023-06-22T12:48:50;100975.75;;;22.19;73.63
60852;BME280;48553;50.766;2.900;2023-06-22T12:51:50;100972.94;;;22.22;73.59
60852;BME280;48553;50.766;2.900;2023-06-22T12:54:51;100968.94;;;22.23;73.60
60852;BME280;48553;50.766;2.900;2023-06-22T12:57:52;100972.53;;;22.24;73.95
60852;BME280;48553;50.766;2.900;2023-06-22T13:00:52;100968.91;;;22.27;73.63
60852;BME280;48553;50.766;2.900;2023-06-22T13:03:53;100962.50;;;22.30;73.65
60852;BME280;48553;50.766;2.900;2023-06-22T13:06:54;100966.06;;;22.34;73.19
60852;BME280;48553;50.766;2.900;2023-06-22T13:09:54;100970.41;;;22.39;73.01
60852;BME280;48553;50.766;2.900;2023-06-22T13:12:54;100968.00;;;22.41;73.03
60852;BME280;48553;50.766;2.900;2023-06-22T13:16:00;100963.19;;;22.45;72.69
60852;BME280;48553;50.766;2.900;2023-06-22T13:19:01;100969.16;;;22.47;72.62
60852;BME280;48553;50.766;2.900;2023-06-22T13:22:01;100971.09;;;22.50;72.62
60852;BME280;48553;50.766;2.900;2023-06-22T13:25:04;100978.25;;;22.55;72.47
60852;BME280;48553;50.766;2.900;2023-06-22T13:28:04;100974.59;;;22.61;72.33
60852;BME280;48553;50.766;2.900;2023-06-22T13:31:05;100958.22;;;22.63;72.40
60852;BME280;48553;50.766;2.900;2023-06-22T13:34:05;100951.38;;;22.68;72.22
60852;BME280;48553;50.766;2.900;2023-06-22T13:37:06;100958.13;;;22.74;71.91
60852;BME280;48553;50.766;2.900;2023-06-22T13:40:07;100964.50;;;22.75;71.67
60852;BME280;48553;50.766;2.900;2023-06-22T13:43:08;100955.69;;;22.76;71.26
60852;BME280;48553;50.766;2.900;2023-06-22T13:46:08;100954.88;;;22.79;71.25
60852;BME280;48553;50.766;2.900;2023-06-22T13:49:08;100946.06;;;22.81;70.87
60852;BME280;48553;50.766;2.900;2023-06-22T13:52:09;100950.41;;;22.85;71.00
60852;BME280;48553;50.766;2.900;2023-06-22T13:55:10;100953.16;;;22.89;70.69
60852;BME280;48553;50.766;2.900;2023-06-22T13:58:11;100951.91;;;22.93;69.83
60852;BME280;48553;50.766;2.900;2023-06-22T14:01:11;100950.28;;;23.00;69.78
60852;BME280;48553;50.766;2.900;2023-06-22T14:04:11;100948.63;;;23.06;69.22
60852;BME280;48553;50.766;2.900;2023-06-22T14:07:12;100951.31;;;23.13;69.06
60852;BME280;48553;50.766;2.900;2023-06-22T14:10:12;100961.63;;;23.20;68.70
60852;BME280;48553;50.766;2.900;2023-06-22T14:13:13;100958.44;;;23.21;68.48
60852;BME280;48553;50.766;2.900;2023-06-22T14:16:13;100955.19;;;23.23;67.14
60852;BME280;48553;50.766;2.900;2023-06-22T14:19:14;100965.19;;;23.24;66.93
60852;BME280;48553;50.766;2.900;2023-06-22T14:22:14;100970.31;;;23.29;67.05
60852;BME280;48553;50.766;2.900;2023-06-22T14:25:20;100959.09;;;23.32;67.33
60852;BME280;48553;50.766;2.900;2023-06-22T14:28:20;100974.19;;;23.39;67.08
60852;BME280;48553;50.766;2.900;2023-06-22T14:31:20;100973.69;;;23.47;66.73
60852;BME280;48553;50.766;2.900;2023-06-22T14:34:21;100980.03;;;23.51;66.80
60852;BME280;48553;50.766;2.900;2023-06-22T14:37:21;100988.38;;;23.55;66.76
60852;BME280;48553;50.766;2.900;2023-06-22T14:40:22;100998.75;;;23.54;66.84
60852;BME280;48553;50.766;2.900;2023-06-22T14:43:22;100988.72;;;23.57;66.73
60852;BME280;48553;50.766;2.900;2023-06-22T14:46:23;100994.69;;;23.59;66.73
60852;BME280;48553;50.766;2.900;2023-06-22T14:49:23;100994.25;;;23.64;66.18
60852;BME280;48553;50.766;2.900;2023-06-22T14:52:24;100999.00;;;23.67;65.96
60852;BME280;48553;50.766;2.900;2023-06-22T14:55:24;100996.97;;;23.71;66.19
60852;BME280;48553;50.766;2.900;2023-06-22T14:58:25;101005.34;;;23.71;66.42
60852;BME280;48553;50.766;2.900;2023-06-22T15:01:25;101007.72;;;23.76;66.05
60852;BME280;48553;50.766;2.900;2023-06-22T15:04:25;100998.09;;;23.77;65.82
60852;BME280;48553;50.766;2.900;2023-06-22T15:07:31;100996.88;;;23.79;65.35
60852;BME280;48553;50.766;2.900;2023-06-22T15:10:32;101002.84;;;23.81;65.61
60852;BME280;48553;50.766;2.900;2023-06-22T15:13:32;101006.03;;;23.83;65.84
60852;BME280;48553;50.766;2.900;2023-06-22T15:16:36;101004.44;;;23.82;65.87
60852;BME280;48553;50.766;2.900;2023-06-22T15:19:37;101006.06;;;23.79;65.61
60852;BME280;48553;50.766;2.900;2023-06-22T15:22:37;101011.63;;;23.83;65.36
60852;BME280;48553;50.766;2.900;2023-06-22T15:25:38;101009.28;;;23.77;64.57
60852;BME280;48553;50.766;2.900;2023-06-22T15:28:39;101016.09;;;23.76;64.50
60852;BME280;48553;50.766;2.900;2023-06-22T15:31:39;101011.66;;;23.79;64.17
60852;BME280;48553;50.766;2.900;2023-06-22T15:34:40;101009.72;;;23.76;64.56
60852;BME280;48553;50.766;2.900;2023-06-22T15:37:40;101010.13;;;23.74;64.04
60852;BME280;48553;50.766;2.900;2023-06-22T15:40:40;101012.53;;;23.72;63.44
60852;BME280;48553;50.766;2.900;2023-06-22T15:43:41;101030.53;;;23.71;63.40
60852;BME280;48553;50.766;2.900;2023-06-22T15:46:41;101024.56;;;23.69;63.09
60852;BME280;48553;50.766;2.900;2023-06-22T15:49:42;101031.38;;;23.68;62.98
60852;BME280;48553;50.766;2.900;2023-06-22T15:52:43;101032.22;;;23.65;62.61
60852;BME280;48553;50.766;2.900;2023-06-22T15:55:47;101036.25;;;23.64;62.87